Mindoro Star — V7RE6 — position and weather

sailwx.info

Track history (hours):
 
Tides and Currents Weather Stations Pressure Air Temp Water Temp Dewpoint Dewpoint Depression Visibility Wind Speed Wind Dir Waves Ship Positions

Mindoro Star

Last reported at 2017-Jan-22 09:32 UTC. Time now 2017-Jan-22 10:10 UTC.
Position N 10°22' W 061°33'.

Length 238 m; draft 14.8 m.

Type: Tanker. MMSI: 538003490.

Date/timePositionNaut miles runAvg speedWind from/ knotsBaromVisibWave heightAir tempDewpointWater temp
2017-Jan-22 09:32N 10°22' W 061°33'0 0.0
2017-Jan-22 08:32N 10°22' W 061°33'0 0.0
2017-Jan-22 07:29N 10°22' W 061°33'0 0.0
2017-Jan-22 06:32N 10°22' W 061°33'0 0.0
2017-Jan-22 05:32N 10°22' W 061°33'0 0.0
2017-Jan-22 04:32N 10°22' W 061°33'0 0.0
2017-Jan-22 03:32N 10°22' W 061°33'0 0.0
2017-Jan-22 02:32N 10°22' W 061°33'0 0.0
2017-Jan-22 01:32N 10°22' W 061°33'0 0.0
2017-Jan-22 00:32N 10°22' W 061°33'0 0.0
2017-Jan-21 23:32N 10°22' W 061°33'0 0.0
2017-Jan-21 22:32N 10°22' W 061°33'0 0.0
2017-Jan-21 21:32N 10°22' W 061°33'0 0.1
2017-Jan-21 20:32N 10°22' W 061°33'0 0.0
2017-Jan-21 18:32N 10°22' W 061°33'4 0.7
2017-Jan-21 13:33N 10°19' W 061°31'1 0.8
2017-Jan-21 12:33N 10°20' W 061°30'1 1.2
2017-Jan-21 11:32N 10°20' W 061°29'0 0.0
2017-Jan-21 10:32N 10°20' W 061°29'0 0.0
2017-Jan-21 09:32N 10°20' W 061°29'0 0.0
2017-Jan-21 08:32N 10°20' W 061°29'0 0.0
2017-Jan-21 07:29N 10°20' W 061°29'0 0.0
2017-Jan-21 06:32N 10°20' W 061°29'0 0.0
2017-Jan-21 05:32N 10°20' W 061°29'0 0.0
2017-Jan-21 04:32N 10°20' W 061°29'0 0.0
2017-Jan-21 03:32N 10°20' W 061°29'0 0.0
2017-Jan-21 02:32N 10°20' W 061°29'0 0.0
2017-Jan-21 01:32N 10°20' W 061°29'0 0.0
2017-Jan-21 00:32N 10°20' W 061°29'0 0.0
2017-Jan-20 23:32N 10°20' W 061°29'0 0.0
2017-Jan-20 22:32N 10°20' W 061°29'0 0.0
2017-Jan-20 21:32N 10°20' W 061°29'0 0.0
2017-Jan-20 20:32N 10°20' W 061°29'0 0.0
2017-Jan-20 19:32N 10°20' W 061°29'0 0.0
2017-Jan-20 18:32N 10°20' W 061°29'0 0.0
2017-Jan-20 17:32N 10°20' W 061°29'0 0.0
2017-Jan-20 16:32N 10°20' W 061°29'0 0.0
2017-Jan-20 15:32N 10°20' W 061°29'0 0.0
2017-Jan-20 14:32N 10°20' W 061°29'0 0.0
2017-Jan-20 13:32N 10°20' W 061°29'0 0.0
2017-Jan-20 12:32N 10°20' W 061°29'0 0.0
2017-Jan-20 11:32N 10°20' W 061°29'0 0.0
2017-Jan-20 10:32N 10°20' W 061°29'0 0.0
2017-Jan-20 09:32N 10°20' W 061°29'0 0.0
2017-Jan-20 08:32N 10°20' W 061°29'0 0.0
2017-Jan-20 07:32N 10°20' W 061°29'0 0.0
2017-Jan-20 06:32N 10°20' W 061°29'0 0.0
2017-Jan-20 05:32N 10°20' W 061°29'0 0.0
2017-Jan-20 04:33N 10°20' W 061°29'1 0.5
2017-Jan-20 03:33N 10°20' W 061°30'2 2.1
2017-Jan-20 02:34N 10°19' W 061°31'0 0.0
2017-Jan-20 01:28N 10°19' W 061°31'0 0.0
2017-Jan-20 00:31N 10°19' W 061°31'0 0.0
2017-Jan-19 21:31N 10°19' W 061°31'0 0.0
2017-Jan-19 20:31N 10°19' W 061°31'0 0.0
2017-Jan-19 19:31N 10°19' W 061°31'0 0.0
2017-Jan-19 18:31N 10°19' W 061°31'0 0.0
2017-Jan-19 17:28N 10°19' W 061°31'0 0.0
2017-Jan-19 16:31N 10°19' W 061°31'0 0.0
2017-Jan-19 15:31N 10°19' W 061°31'0 0.0
2017-Jan-19 14:28N 10°19' W 061°31'0 0.0
2017-Jan-19 13:28N 10°19' W 061°31'0 0.0
2017-Jan-19 12:31N 10°19' W 061°31'0 0.0
2017-Jan-19 11:31N 10°19' W 061°31'0 0.0
2017-Jan-19 10:28N 10°19' W 061°31'0 0.0
2017-Jan-19 09:31N 10°19' W 061°31'0 0.0
2017-Jan-19 06:31N 10°19' W 061°31'0 0.0
2017-Jan-19 05:31N 10°19' W 061°31'0 0.0
2017-Jan-19 04:25N 10°19' W 061°31'0 0.0
2017-Jan-19 00:07N 10°19' W 061°31'0 0.2
2017-Jan-18 23:31N 10°19' W 061°32'0 0.1
2017-Jan-18 22:28N 10°19' W 061°32'0 0.2
2017-Jan-18 21:31N 10°19' W 061°31'0 0.0
2017-Jan-18 20:28N 10°19' W 061°31'0 0.0
2017-Jan-18 19:16N 10°19' W 061°31'0 0.0
2017-Jan-18 18:31N 10°19' W 061°31'0 0.0
2017-Jan-18 17:25N 10°19' W 061°31'0 0.0
2017-Jan-18 16:19N 10°19' W 061°31'0 0.0
2017-Jan-18 15:31N 10°19' W 061°31'0 0.0
2017-Jan-18 14:31N 10°19' W 061°31'0 0.1
2017-Jan-18 13:25N 10°19' W 061°31'0 0.1
2017-Jan-18 12:19N 10°19' W 061°31'0 0.0
2017-Jan-18 11:28N 10°19' W 061°31'0 0.0
2017-Jan-18 10:28N 10°19' W 061°31'0 0.0
2017-Jan-18 09:31N 10°19' W 061°31'0 0.0
2017-Jan-18 08:28N 10°19' W 061°31'0 0.0
2017-Jan-18 07:31N 10°19' W 061°31'0 0.0
2017-Jan-18 06:31N 10°19' W 061°31'0 0.0
2017-Jan-18 05:31N 10°19' W 061°31'0 0.1
2017-Jan-18 04:28N 10°19' W 061°31'0 0.1
2017-Jan-18 03:22N 10°19' W 061°31'0 0.0
2017-Jan-18 02:28N 10°19' W 061°31'0 0.0
2017-Jan-18 01:31N 10°19' W 061°31'0 0.0
2017-Jan-18 00:31N 10°19' W 061°31'0 0.1
2017-Jan-17 23:13N 10°19' W 061°31'0 0.1
2017-Jan-17 22:31N 10°19' W 061°31'0 0.0
2017-Jan-17 21:31N 10°19' W 061°32'0 0.0
2017-Jan-17 20:31N 10°19' W 061°32'0 0.0
2017-Jan-17 19:31N 10°19' W 061°32'0 0.0
2017-Jan-17 17:07N 10°19' W 061°32'0 0.1
2017-Jan-17 16:19N 10°19' W 061°32'0 0.1
2017-Jan-17 15:25N 10°19' W 061°31'0 0.1
2017-Jan-17 14:22N 10°19' W 061°31'0 0.0
2017-Jan-17 13:31N 10°19' W 061°31'0 0.0
2017-Jan-17 12:25N 10°19' W 061°31'0 0.0
2017-Jan-17 11:10N 10°19' W 061°31'0 0.1
2017-Jan-17 10:28N 10°19' W 061°31'0 0.0
2017-Jan-17 09:31N 10°19' W 061°31'0 0.1
2017-Jan-17 08:31N 10°19' W 061°31'0 0.0
2017-Jan-17 07:31N 10°19' W 061°31'0 0.0
2017-Jan-17 06:31N 10°19' W 061°32'0 0.0
2017-Jan-17 05:31N 10°19' W 061°32'0 0.0
2017-Jan-17 04:28N 10°19' W 061°32'0 0.1
2017-Jan-17 03:31N 10°19' W 061°31'0 0.1
2017-Jan-17 02:28N 10°19' W 061°31'0 0.0
2017-Jan-17 01:31N 10°19' W 061°31'0 0.0
2017-Jan-17 00:31N 10°19' W 061°31'0 0.1
2017-Jan-16 23:31N 10°19' W 061°31'0 0.1
2017-Jan-16 21:28N 10°19' W 061°32'0 0.0
2017-Jan-16 20:31N 10°19' W 061°32'0 0.0
2017-Jan-16 18:13N 10°19' W 061°32'0 0.0
2017-Jan-16 17:25N 10°19' W 061°32'0 0.0
2017-Jan-16 16:25N 10°19' W 061°32'0 0.0
2017-Jan-16 15:31N 10°19' W 061°32'0 0.1
2017-Jan-16 13:28N 10°19' W 061°31'0 0.0
2017-Jan-16 12:31N 10°19' W 061°31'0 0.0
2017-Jan-16 11:31N 10°19' W 061°31'0 0.1
2017-Jan-16 09:31N 10°19' W 061°31'0 0.1
2017-Jan-16 08:13N 10°19' W 061°31'0 0.1
2017-Jan-16 07:31N 10°19' W 061°31'0 0.1
2017-Jan-16 06:25N 10°19' W 061°32'0 0.0
2017-Jan-16 05:31N 10°19' W 061°32'0 0.1
2017-Jan-16 04:16N 10°19' W 061°32'0 0.1
2017-Jan-16 02:25N 10°19' W 061°31'0 0.0
2017-Jan-16 01:31N 10°19' W 061°31'0 0.0
2017-Jan-16 00:13N 10°19' W 061°31'0 0.0
2017-Jan-15 23:31N 10°19' W 061°31'0 0.0
2017-Jan-15 21:13N 10°19' W 061°31'0 0.0
2017-Jan-15 20:31N 10°19' W 061°31'0 0.0
2017-Jan-15 19:31N 10°19' W 061°31'0 0.1
2017-Jan-15 17:31N 10°19' W 061°31'0 0.0
2017-Jan-15 16:31N 10°19' W 061°31'0 0.1
2017-Jan-15 14:22N 10°19' W 061°31'0 0.0
2017-Jan-15 13:31N 10°19' W 061°31'0 0.0
2017-Jan-15 12:22N 10°19' W 061°31'0 0.0
2017-Jan-15 11:28N 10°19' W 061°31'0 0.0
2017-Jan-15 10:25N 10°19' W 061°31'0 0.0
2017-Jan-15 07:10N 10°19' W 061°31'0 0.0
2017-Jan-15 06:19N 10°19' W 061°31'0 0.1
2017-Jan-15 05:19N 10°19' W 061°31'0 0.0
2017-Jan-15 04:31N 10°19' W 061°31'0 0.0
2017-Jan-15 03:28N 10°19' W 061°31'0 0.0
2017-Jan-15 02:28N 10°19' W 061°31'0 0.0
2017-Jan-15 01:28N 10°19' W 061°31'0 0.0
2017-Jan-15 00:31N 10°19' W 061°31'0 0.0
2017-Jan-14 23:31N 10°19' W 061°31'0 0.0
2017-Jan-14 22:31N 10°19' W 061°31'0 0.0
2017-Jan-14 21:31N 10°19' W 061°31'0 0.0
2017-Jan-14 20:31N 10°19' W 061°31'0 0.0
2017-Jan-14 19:25N 10°19' W 061°31'0 0.0
2017-Jan-14 18:31N 10°19' W 061°31'0 0.1
2017-Jan-14 17:28N 10°19' W 061°31'0 0.0
2017-Jan-14 16:19N 10°19' W 061°31'0 0.1
2017-Jan-14 15:28N 10°19' W 061°31'0 0.0
2017-Jan-14 14:31N 10°19' W 061°31'0 0.0
2017-Jan-14 13:31N 10°19' W 061°31'0 0.0
2017-Jan-14 12:31N 10°19' W 061°31'0 0.0
2017-Jan-14 11:31N 10°19' W 061°31'0 0.0
2017-Jan-14 09:31N 10°19' W 061°31'0 0.1
2017-Jan-14 08:31N 10°19' W 061°31'0 0.1
2017-Jan-14 07:28N 10°19' W 061°31'0 0.0
2017-Jan-14 06:16N 10°19' W 061°31'0 0.0
2017-Jan-14 05:31N 10°19' W 061°31'0 0.1
2017-Jan-14 04:31N 10°19' W 061°31'0 0.1
2017-Jan-14 03:25N 10°19' W 061°31'0 0.0
2017-Jan-13 23:22N 10°19' W 061°31'0 0.1
2017-Jan-13 22:19N 10°19' W 061°31'0 0.0
2017-Jan-13 21:31N 10°19' W 061°31'0 0.1
2017-Jan-13 20:31N 10°19' W 061°31'0 0.0
2017-Jan-13 19:07N 10°19' W 061°31'0 0.0
2017-Jan-13 18:22N 10°19' W 061°31'0 0.0
2017-Jan-13 17:22N 10°19' W 061°31'0 0.0
2017-Jan-13 16:31N 10°19' W 061°31'0 0.1
2017-Jan-13 15:31N 10°19' W 061°31'0 0.0
2017-Jan-13 13:31N 10°19' W 061°31'0 0.0
2017-Jan-13 12:28N 10°19' W 061°31'0 0.0
2017-Jan-13 11:28N 10°19' W 061°31'0 0.1
2017-Jan-13 10:31N 10°19' W 061°31'0 0.1
2017-Jan-13 09:31N 10°19' W 061°31'0 0.0
2017-Jan-13 08:28N 10°19' W 061°31'0 0.0
2017-Jan-13 07:31N 10°19' W 061°31'0 0.0
2017-Jan-13 06:31N 10°19' W 061°31'0 0.0
2017-Jan-13 05:22N 10°19' W 061°31'0 0.0
2017-Jan-13 04:31N 10°19' W 061°31'0 0.0
2017-Jan-13 02:07N 10°19' W 061°31'0 0.1
2017-Jan-13 01:28N 10°19' W 061°31'0 0.1
2017-Jan-13 00:25N 10°19' W 061°31'0 0.0
2017-Jan-12 23:31N 10°19' W 061°31'0 0.0
2017-Jan-12 22:31N 10°19' W 061°31'0 0.0
2017-Jan-12 21:31N 10°19' W 061°31'0 0.0
2017-Jan-12 20:28N 10°19' W 061°31'0 0.0
2017-Jan-12 19:28N 10°19' W 061°31'0 0.1
2017-Jan-12 18:22N 10°19' W 061°31'0 0.0
2017-Jan-12 17:19N 10°19' W 061°31'0 0.0
2017-Jan-12 16:25N 10°19' W 061°31'0 0.0
2017-Jan-12 15:19N 10°19' W 061°31'0 0.0
2017-Jan-12 14:28N 10°19' W 061°31'0 0.0
2017-Jan-12 13:31N 10°19' W 061°31'0 0.0
2017-Jan-12 11:28N 10°19' W 061°31'0 0.0
2017-Jan-12 10:31N 10°19' W 061°31'  
Track history (hours):
 
Tides and Currents Weather Stations Pressure Air Temp Water Temp Dewpoint Dewpoint Depression Visibility Wind Speed Wind Dir Waves Ship Positions

Mindoro Star

Last reported at 2017-Jan-22 09:32 UTC. Time now 2017-Jan-22 10:10 UTC.
Position N 10°22' W 061°33'.

Length 238 m; draft 14.8 m.

Type: Tanker. MMSI: 538003490.

Date/timePositionNaut miles runAvg speedWind from/ knotsBaromVisibWave heightAir tempDewpointWater temp
2017-Jan-22 09:32N 10°22' W 061°33'0 0.0
2017-Jan-22 08:32N 10°22' W 061°33'0 0.0
2017-Jan-22 07:29N 10°22' W 061°33'0 0.0
2017-Jan-22 06:32N 10°22' W 061°33'0 0.0
2017-Jan-22 05:32N 10°22' W 061°33'0 0.0
2017-Jan-22 04:32N 10°22' W 061°33'0 0.0
2017-Jan-22 03:32N 10°22' W 061°33'0 0.0
2017-Jan-22 02:32N 10°22' W 061°33'0 0.0
2017-Jan-22 01:32N 10°22' W 061°33'0 0.0
2017-Jan-22 00:32N 10°22' W 061°33'0 0.0
2017-Jan-21 23:32N 10°22' W 061°33'0 0.0
2017-Jan-21 22:32N 10°22' W 061°33'0 0.0
2017-Jan-21 21:32N 10°22' W 061°33'0 0.1
2017-Jan-21 20:32N 10°22' W 061°33'0 0.0
2017-Jan-21 18:32N 10°22' W 061°33'4 0.7
2017-Jan-21 13:33N 10°19' W 061°31'1 0.8
2017-Jan-21 12:33N 10°20' W 061°30'1 1.2
2017-Jan-21 11:32N 10°20' W 061°29'0 0.0
2017-Jan-21 10:32N 10°20' W 061°29'0 0.0
2017-Jan-21 09:32N 10°20' W 061°29'0 0.0
2017-Jan-21 08:32N 10°20' W 061°29'0 0.0
2017-Jan-21 07:29N 10°20' W 061°29'0 0.0
2017-Jan-21 06:32N 10°20' W 061°29'0 0.0
2017-Jan-21 05:32N 10°20' W 061°29'0 0.0
2017-Jan-21 04:32N 10°20' W 061°29'0 0.0
2017-Jan-21 03:32N 10°20' W 061°29'0 0.0
2017-Jan-21 02:32N 10°20' W 061°29'0 0.0
2017-Jan-21 01:32N 10°20' W 061°29'0 0.0
2017-Jan-21 00:32N 10°20' W 061°29'0 0.0
2017-Jan-20 23:32N 10°20' W 061°29'0 0.0
2017-Jan-20 22:32N 10°20' W 061°29'0 0.0
2017-Jan-20 21:32N 10°20' W 061°29'0 0.0
2017-Jan-20 20:32N 10°20' W 061°29'0 0.0
2017-Jan-20 19:32N 10°20' W 061°29'0 0.0
2017-Jan-20 18:32N 10°20' W 061°29'0 0.0
2017-Jan-20 17:32N 10°20' W 061°29'0 0.0
2017-Jan-20 16:32N 10°20' W 061°29'0 0.0
2017-Jan-20 15:32N 10°20' W 061°29'0 0.0
2017-Jan-20 14:32N 10°20' W 061°29'0 0.0
2017-Jan-20 13:32N 10°20' W 061°29'0 0.0
2017-Jan-20 12:32N 10°20' W 061°29'0 0.0
2017-Jan-20 11:32N 10°20' W 061°29'0 0.0
2017-Jan-20 10:32N 10°20' W 061°29'0 0.0
2017-Jan-20 09:32N 10°20' W 061°29'0 0.0
2017-Jan-20 08:32N 10°20' W 061°29'0 0.0
2017-Jan-20 07:32N 10°20' W 061°29'0 0.0
2017-Jan-20 06:32N 10°20' W 061°29'0 0.0
2017-Jan-20 05:32N 10°20' W 061°29'0 0.0
2017-Jan-20 04:33N 10°20' W 061°29'1 0.5
2017-Jan-20 03:33N 10°20' W 061°30'2 2.1
2017-Jan-20 02:34N 10°19' W 061°31'0 0.0
2017-Jan-20 01:28N 10°19' W 061°31'0 0.0
2017-Jan-20 00:31N 10°19' W 061°31'0 0.0
2017-Jan-19 21:31N 10°19' W 061°31'0 0.0
2017-Jan-19 20:31N 10°19' W 061°31'0 0.0
2017-Jan-19 19:31N 10°19' W 061°31'0 0.0
2017-Jan-19 18:31N 10°19' W 061°31'0 0.0
2017-Jan-19 17:28N 10°19' W 061°31'0 0.0
2017-Jan-19 16:31N 10°19' W 061°31'0 0.0
2017-Jan-19 15:31N 10°19' W 061°31'0 0.0
2017-Jan-19 14:28N 10°19' W 061°31'0 0.0
2017-Jan-19 13:28N 10°19' W 061°31'0 0.0
2017-Jan-19 12:31N 10°19' W 061°31'0 0.0
2017-Jan-19 11:31N 10°19' W 061°31'0 0.0
2017-Jan-19 10:28N 10°19' W 061°31'0 0.0
2017-Jan-19 09:31N 10°19' W 061°31'0 0.0
2017-Jan-19 06:31N 10°19' W 061°31'0 0.0
2017-Jan-19 05:31N 10°19' W 061°31'0 0.0
2017-Jan-19 04:25N 10°19' W 061°31'0 0.0
2017-Jan-19 00:07N 10°19' W 061°31'0 0.2
2017-Jan-18 23:31N 10°19' W 061°32'0 0.1
2017-Jan-18 22:28N 10°19' W 061°32'0 0.2
2017-Jan-18 21:31N 10°19' W 061°31'0 0.0
2017-Jan-18 20:28N 10°19' W 061°31'0 0.0
2017-Jan-18 19:16N 10°19' W 061°31'0 0.0
2017-Jan-18 18:31N 10°19' W 061°31'0 0.0
2017-Jan-18 17:25N 10°19' W 061°31'0 0.0
2017-Jan-18 16:19N 10°19' W 061°31'0 0.0
2017-Jan-18 15:31N 10°19' W 061°31'0 0.0
2017-Jan-18 14:31N 10°19' W 061°31'0 0.1
2017-Jan-18 13:25N 10°19' W 061°31'0 0.1
2017-Jan-18 12:19N 10°19' W 061°31'0 0.0
2017-Jan-18 11:28N 10°19' W 061°31'0 0.0
2017-Jan-18 10:28N 10°19' W 061°31'0 0.0
2017-Jan-18 09:31N 10°19' W 061°31'0 0.0
2017-Jan-18 08:28N 10°19' W 061°31'0 0.0
2017-Jan-18 07:31N 10°19' W 061°31'0 0.0
2017-Jan-18 06:31N 10°19' W 061°31'0 0.0
2017-Jan-18 05:31N 10°19' W 061°31'0 0.1
2017-Jan-18 04:28N 10°19' W 061°31'0 0.1
2017-Jan-18 03:22N 10°19' W 061°31'0 0.0
2017-Jan-18 02:28N 10°19' W 061°31'0 0.0
2017-Jan-18 01:31N 10°19' W 061°31'0 0.0
2017-Jan-18 00:31N 10°19' W 061°31'0 0.1
2017-Jan-17 23:13N 10°19' W 061°31'0 0.1
2017-Jan-17 22:31N 10°19' W 061°31'0 0.0
2017-Jan-17 21:31N 10°19' W 061°32'0 0.0
2017-Jan-17 20:31N 10°19' W 061°32'0 0.0
2017-Jan-17 19:31N 10°19' W 061°32'0 0.0
2017-Jan-17 17:07N 10°19' W 061°32'0 0.1
2017-Jan-17 16:19N 10°19' W 061°32'0 0.1
2017-Jan-17 15:25N 10°19' W 061°31'0 0.1
2017-Jan-17 14:22N 10°19' W 061°31'0 0.0
2017-Jan-17 13:31N 10°19' W 061°31'0 0.0
2017-Jan-17 12:25N 10°19' W 061°31'0 0.0
2017-Jan-17 11:10N 10°19' W 061°31'0 0.1
2017-Jan-17 10:28N 10°19' W 061°31'0 0.0
2017-Jan-17 09:31N 10°19' W 061°31'0 0.1
2017-Jan-17 08:31N 10°19' W 061°31'0 0.0
2017-Jan-17 07:31N 10°19' W 061°31'0 0.0
2017-Jan-17 06:31N 10°19' W 061°32'0 0.0
2017-Jan-17 05:31N 10°19' W 061°32'0 0.0
2017-Jan-17 04:28N 10°19' W 061°32'0 0.1
2017-Jan-17 03:31N 10°19' W 061°31'0 0.1
2017-Jan-17 02:28N 10°19' W 061°31'0 0.0
2017-Jan-17 01:31N 10°19' W 061°31'0 0.0
2017-Jan-17 00:31N 10°19' W 061°31'0 0.1
2017-Jan-16 23:31N 10°19' W 061°31'0 0.1
2017-Jan-16 21:28N 10°19' W 061°32'0 0.0
2017-Jan-16 20:31N 10°19' W 061°32'0 0.0
2017-Jan-16 18:13N 10°19' W 061°32'0 0.0
2017-Jan-16 17:25N 10°19' W 061°32'0 0.0
2017-Jan-16 16:25N 10°19' W 061°32'0 0.0
2017-Jan-16 15:31N 10°19' W 061°32'0 0.1
2017-Jan-16 13:28N 10°19' W 061°31'0 0.0
2017-Jan-16 12:31N 10°19' W 061°31'0 0.0
2017-Jan-16 11:31N 10°19' W 061°31'0 0.1
2017-Jan-16 09:31N 10°19' W 061°31'0 0.1
2017-Jan-16 08:13N 10°19' W 061°31'0 0.1
2017-Jan-16 07:31N 10°19' W 061°31'0 0.1
2017-Jan-16 06:25N 10°19' W 061°32'0 0.0
2017-Jan-16 05:31N 10°19' W 061°32'0 0.1
2017-Jan-16 04:16N 10°19' W 061°32'0 0.1
2017-Jan-16 02:25N 10°19' W 061°31'0 0.0
2017-Jan-16 01:31N 10°19' W 061°31'0 0.0
2017-Jan-16 00:13N 10°19' W 061°31'0 0.0
2017-Jan-15 23:31N 10°19' W 061°31'0 0.0
2017-Jan-15 21:13N 10°19' W 061°31'0 0.0
2017-Jan-15 20:31N 10°19' W 061°31'0 0.0
2017-Jan-15 19:31N 10°19' W 061°31'0 0.1
2017-Jan-15 17:31N 10°19' W 061°31'0 0.0
2017-Jan-15 16:31N 10°19' W 061°31'0 0.1
2017-Jan-15 14:22N 10°19' W 061°31'0 0.0
2017-Jan-15 13:31N 10°19' W 061°31'0 0.0
2017-Jan-15 12:22N 10°19' W 061°31'0 0.0
2017-Jan-15 11:28N 10°19' W 061°31'0 0.0
2017-Jan-15 10:25N 10°19' W 061°31'0 0.0
2017-Jan-15 07:10N 10°19' W 061°31'0 0.0
2017-Jan-15 06:19N 10°19' W 061°31'0 0.1
2017-Jan-15 05:19N 10°19' W 061°31'0 0.0
2017-Jan-15 04:31N 10°19' W 061°31'0 0.0
2017-Jan-15 03:28N 10°19' W 061°31'0 0.0
2017-Jan-15 02:28N 10°19' W 061°31'0 0.0
2017-Jan-15 01:28N 10°19' W 061°31'0 0.0
2017-Jan-15 00:31N 10°19' W 061°31'0 0.0
2017-Jan-14 23:31N 10°19' W 061°31'0 0.0
2017-Jan-14 22:31N 10°19' W 061°31'0 0.0
2017-Jan-14 21:31N 10°19' W 061°31'0 0.0
2017-Jan-14 20:31N 10°19' W 061°31'0 0.0
2017-Jan-14 19:25N 10°19' W 061°31'0 0.0
2017-Jan-14 18:31N 10°19' W 061°31'0 0.1
2017-Jan-14 17:28N 10°19' W 061°31'0 0.0
2017-Jan-14 16:19N 10°19' W 061°31'0 0.1
2017-Jan-14 15:28N 10°19' W 061°31'0 0.0
2017-Jan-14 14:31N 10°19' W 061°31'0 0.0
2017-Jan-14 13:31N 10°19' W 061°31'0 0.0
2017-Jan-14 12:31N 10°19' W 061°31'0 0.0
2017-Jan-14 11:31N 10°19' W 061°31'0 0.0
2017-Jan-14 09:31N 10°19' W 061°31'0 0.1
2017-Jan-14 08:31N 10°19' W 061°31'0 0.1
2017-Jan-14 07:28N 10°19' W 061°31'0 0.0
2017-Jan-14 06:16N 10°19' W 061°31'0 0.0
2017-Jan-14 05:31N 10°19' W 061°31'0 0.1
2017-Jan-14 04:31N 10°19' W 061°31'0 0.1
2017-Jan-14 03:25N 10°19' W 061°31'0 0.0
2017-Jan-13 23:22N 10°19' W 061°31'0 0.1
2017-Jan-13 22:19N 10°19' W 061°31'0 0.0
2017-Jan-13 21:31N 10°19' W 061°31'0 0.1
2017-Jan-13 20:31N 10°19' W 061°31'0 0.0
2017-Jan-13 19:07N 10°19' W 061°31'0 0.0
2017-Jan-13 18:22N 10°19' W 061°31'0 0.0
2017-Jan-13 17:22N 10°19' W 061°31'0 0.0
2017-Jan-13 16:31N 10°19' W 061°31'0 0.1
2017-Jan-13 15:31N 10°19' W 061°31'0 0.0
2017-Jan-13 13:31N 10°19' W 061°31'0 0.0
2017-Jan-13 12:28N 10°19' W 061°31'0 0.0
2017-Jan-13 11:28N 10°19' W 061°31'0 0.1
2017-Jan-13 10:31N 10°19' W 061°31'0 0.1
2017-Jan-13 09:31N 10°19' W 061°31'0 0.0
2017-Jan-13 08:28N 10°19' W 061°31'0 0.0
2017-Jan-13 07:31N 10°19' W 061°31'0 0.0
2017-Jan-13 06:31N 10°19' W 061°31'0 0.0
2017-Jan-13 05:22N 10°19' W 061°31'0 0.0
2017-Jan-13 04:31N 10°19' W 061°31'0 0.0
2017-Jan-13 02:07N 10°19' W 061°31'0 0.1
2017-Jan-13 01:28N 10°19' W 061°31'0 0.1
2017-Jan-13 00:25N 10°19' W 061°31'0 0.0
2017-Jan-12 23:31N 10°19' W 061°31'0 0.0
2017-Jan-12 22:31N 10°19' W 061°31'0 0.0
2017-Jan-12 21:31N 10°19' W 061°31'0 0.0
2017-Jan-12 20:28N 10°19' W 061°31'0 0.0
2017-Jan-12 19:28N 10°19' W 061°31'0 0.1
2017-Jan-12 18:22N 10°19' W 061°31'0 0.0
2017-Jan-12 17:19N 10°19' W 061°31'0 0.0
2017-Jan-12 16:25N 10°19' W 061°31'0 0.0
2017-Jan-12 15:19N 10°19' W 061°31'0 0.0
2017-Jan-12 14:28N 10°19' W 061°31'0 0.0
2017-Jan-12 13:31N 10°19' W 061°31'0 0.0
2017-Jan-12 11:28N 10°19' W 061°31'0 0.0
2017-Jan-12 10:31N 10°19' W 061°31'  

Dump ship's entire track history